UCA4822 KBHM-KIAH
Flight info
| Callsign | UCA4822 |
|---|---|
| Flight time | 1h 35m |
| Altitude | 30000 |
| Route | DCT DAYVS DCT KWANE DCT AEX GESNR2 |
| Aircraft | E145/M-SDFGIRW/S |
Departure
| Time | 2026-04-16 03:15 |
|---|---|
| Airport | Birmingham-Shuttlesworth International Airport (KBHM) |
Arrival
| Time | 2026-04-16 04:50 |
|---|---|
| Airport | George Bush Intercontinental Airport (KIAH) |
| Time | Latitude | Longitude | Altitude | Speed | Heading |
|---|---|---|---|---|---|
| 2026-04-16 02:35 | 33.56080 | -86.75410 | 612 ft | 0 kts | 2° |
| 2026-04-16 03:00 | 33.56070 | -86.75410 | 612 ft | 2 kts | 6° |
| 2026-04-16 03:00 | 33.56055 | -86.75412 | 612 ft | 2 kts | 3° |
| 2026-04-16 03:00 | 33.56043 | -86.75413 | 612 ft | 2 kts | 349° |
| 2026-04-16 03:00 | 33.56030 | -86.75404 | 612 ft | 2 kts | 306° |
| 2026-04-16 03:01 | 33.56025 | -86.75388 | 612 ft | 2 kts | 268° |
| 2026-04-16 03:01 | 33.56025 | -86.75379 | 612 ft | 0 kts | 268° |
| 2026-04-16 03:04 | 33.56025 | -86.75382 | 612 ft | 0 kts | 268° |
| 2026-04-16 03:05 | 33.56025 | -86.75399 | 612 ft | 3 kts | 271° |
| 2026-04-16 03:05 | 33.56026 | -86.75434 | 612 ft | 5 kts | 271° |
| 2026-04-16 03:05 | 33.56027 | -86.75487 | 612 ft | 7 kts | 271° |
| 2026-04-16 03:05 | 33.56033 | -86.75558 | 612 ft | 9 kts | 299° |
| 2026-04-16 03:06 | 33.56090 | -86.75613 | 612 ft | 11 kts | 324° |
| 2026-04-16 03:06 | 33.56151 | -86.75665 | 612 ft | 11 kts | 324° |
| 2026-04-16 03:06 | 33.56230 | -86.75649 | 614 ft | 7 kts | 54° |
| 2026-04-16 03:07 | 33.56260 | -86.75597 | 615 ft | 7 kts | 55° |
| 2026-04-16 03:07 | 33.56292 | -86.75541 | 616 ft | 8 kts | 56° |
| 2026-04-16 03:07 | 33.56326 | -86.75482 | 618 ft | 8 kts | 55° |
| 2026-04-16 03:07 | 33.56363 | -86.75419 | 619 ft | 9 kts | 55° |
| 2026-04-16 03:08 | 33.56405 | -86.75346 | 619 ft | 11 kts | 55° |
| 2026-04-16 03:08 | 33.56451 | -86.75265 | 620 ft | 12 kts | 55° |
| 2026-04-16 03:08 | 33.56503 | -86.75176 | 621 ft | 13 kts | 55° |
| 2026-04-16 03:08 | 33.56554 | -86.75085 | 625 ft | 12 kts | 55° |
| 2026-04-16 03:09 | 33.56594 | -86.75008 | 626 ft | 10 kts | 69° |
| 2026-04-16 03:09 | 33.56602 | -86.74914 | 627 ft | 12 kts | 90° |
| 2026-04-16 03:09 | 33.56625 | -86.74820 | 629 ft | 11 kts | 58° |
| 2026-04-16 03:09 | 33.56670 | -86.74738 | 631 ft | 12 kts | 55° |
| 2026-04-16 03:10 | 33.56721 | -86.74651 | 632 ft | 13 kts | 55° |
| 2026-04-16 03:10 | 33.56776 | -86.74554 | 633 ft | 14 kts | 54° |
| 2026-04-16 03:10 | 33.56838 | -86.74453 | 635 ft | 14 kts | 55° |
| 2026-04-16 03:10 | 33.56894 | -86.74354 | 638 ft | 14 kts | 56° |
| 2026-04-16 03:11 | 33.56950 | -86.74255 | 641 ft | 14 kts | 56° |
| 2026-04-16 03:11 | 33.57006 | -86.74159 | 644 ft | 13 kts | 55° |
| 2026-04-16 03:11 | 33.57060 | -86.74064 | 647 ft | 13 kts | 55° |
| 2026-04-16 03:11 | 33.57112 | -86.73975 | 650 ft | 12 kts | 55° |
| 2026-04-16 03:12 | 33.57153 | -86.73902 | 655 ft | 8 kts | 56° |
| 2026-04-16 03:12 | 33.57181 | -86.73854 | 659 ft | 5 kts | 52° |
| 2026-04-16 03:12 | 33.57216 | -86.73833 | 660 ft | 7 kts | 6° |
| 2026-04-16 03:12 | 33.57270 | -86.73862 | 660 ft | 10 kts | 324° |
| 2026-04-16 03:13 | 33.57326 | -86.73914 | 659 ft | 7 kts | 302° |
| 2026-04-16 03:13 | 33.57314 | -86.73968 | 657 ft | 5 kts | 237° |
| 2026-04-16 03:13 | 33.57301 | -86.73991 | 656 ft | 0 kts | 235° |
| 2026-04-16 03:14 | 33.57273 | -86.74040 | 652 ft | 31 kts | 235° |
| 2026-04-16 03:14 | 33.57000 | -86.74513 | 640 ft | 102 kts | 235° |
| 2026-04-16 03:14 | 33.56485 | -86.75407 | 630 ft | 154 kts | 235° |
| 2026-04-16 03:14 | 33.55860 | -86.76499 | 960 ft | 167 kts | 234° |
| 2026-04-16 03:15 | 33.55190 | -86.77659 | 1550 ft | 170 kts | 233° |
| 2026-04-16 03:15 | 33.54535 | -86.78809 | 2242 ft | 171 kts | 234° |
| 2026-04-16 03:15 | 33.53866 | -86.80006 | 2887 ft | 175 kts | 233° |
| 2026-04-16 03:15 | 33.53193 | -86.81213 | 3545 ft | 178 kts | 234° |
| 2026-04-16 03:16 | 33.52445 | -86.82381 | 4160 ft | 184 kts | 226° |
| 2026-04-16 03:16 | 33.51553 | -86.83566 | 4721 ft | 197 kts | 226° |
| 2026-04-16 03:16 | 33.50619 | -86.84797 | 5375 ft | 206 kts | 226° |
| 2026-04-16 03:16 | 33.49643 | -86.86079 | 6087 ft | 212 kts | 226° |
| 2026-04-16 03:17 | 33.48618 | -86.87421 | 6637 ft | 226 kts | 226° |
| 2026-04-16 03:17 | 33.47527 | -86.88847 | 7155 ft | 242 kts | 226° |
| 2026-04-16 03:17 | 33.46366 | -86.90366 | 7661 ft | 257 kts | 226° |
| 2026-04-16 03:17 | 33.45128 | -86.91984 | 8208 ft | 270 kts | 226° |
| 2026-04-16 03:18 | 33.43885 | -86.93610 | 9134 ft | 265 kts | 226° |
| 2026-04-16 03:18 | 33.42639 | -86.95236 | 9895 ft | 268 kts | 226° |
| 2026-04-16 03:18 | 33.41378 | -86.96882 | 10578 ft | 273 kts | 226° |
| 2026-04-16 03:18 | 33.40076 | -86.98580 | 11115 ft | 283 kts | 227° |
| 2026-04-16 03:19 | 33.38705 | -87.00369 | 11582 ft | 295 kts | 227° |
| 2026-04-16 03:19 | 33.37307 | -87.02192 | 12119 ft | 304 kts | 227° |
| 2026-04-16 03:19 | 33.35855 | -87.04083 | 12584 ft | 314 kts | 227° |
| 2026-04-16 03:19 | 33.34354 | -87.06037 | 13056 ft | 324 kts | 227° |
| 2026-04-16 03:20 | 33.32828 | -87.08023 | 13521 ft | 332 kts | 227° |
| 2026-04-16 03:20 | 33.31240 | -87.10088 | 13984 ft | 340 kts | 227° |
| 2026-04-16 03:20 | 33.29623 | -87.12191 | 14484 ft | 346 kts | 227° |
| 2026-04-16 03:20 | 33.28003 | -87.14296 | 15091 ft | 348 kts | 227° |
| 2026-04-16 03:21 | 33.26356 | -87.16433 | 15674 ft | 350 kts | 227° |
| 2026-04-16 03:21 | 33.24715 | -87.18563 | 16266 ft | 351 kts | 227° |
| 2026-04-16 03:21 | 33.23093 | -87.20700 | 16836 ft | 353 kts | 230° |
| 2026-04-16 03:21 | 33.21538 | -87.23004 | 17398 ft | 354 kts | 231° |
| 2026-04-16 03:22 | 33.19986 | -87.25289 | 17924 ft | 356 kts | 231° |
| 2026-04-16 03:22 | 33.18448 | -87.27553 | 18552 ft | 355 kts | 230° |
| 2026-04-16 03:22 | 33.16902 | -87.29826 | 19251 ft | 351 kts | 230° |
| 2026-04-16 03:22 | 33.15374 | -87.32069 | 19839 ft | 351 kts | 230° |
| 2026-04-16 03:23 | 33.13834 | -87.34329 | 20419 ft | 350 kts | 230° |
| 2026-04-16 03:23 | 33.12297 | -87.36583 | 21036 ft | 348 kts | 230° |
| 2026-04-16 03:23 | 33.10792 | -87.38789 | 21627 ft | 347 kts | 230° |
| 2026-04-16 03:23 | 33.09273 | -87.41013 | 22238 ft | 345 kts | 230° |
| 2026-04-16 03:24 | 33.07778 | -87.43201 | 22843 ft | 342 kts | 230° |
| 2026-04-16 03:24 | 33.06276 | -87.45400 | 23423 ft | 340 kts | 230° |
| 2026-04-16 03:24 | 33.04780 | -87.47585 | 24005 ft | 338 kts | 230° |
| 2026-04-16 03:24 | 33.03305 | -87.49741 | 24591 ft | 335 kts | 231° |
| 2026-04-16 03:25 | 33.01860 | -87.51851 | 25182 ft | 332 kts | 231° |
| 2026-04-16 03:25 | 33.00409 | -87.53970 | 25723 ft | 330 kts | 231° |
| 2026-04-16 03:25 | 32.98954 | -87.56091 | 26218 ft | 329 kts | 231° |
| 2026-04-16 03:25 | 32.97528 | -87.58169 | 26774 ft | 327 kts | 231° |
| 2026-04-16 03:26 | 32.96086 | -87.60271 | 27291 ft | 325 kts | 232° |
| 2026-04-16 03:26 | 32.94681 | -87.62316 | 27826 ft | 322 kts | 232° |
| 2026-04-16 03:26 | 32.93269 | -87.64372 | 28298 ft | 321 kts | 232° |
| 2026-04-16 03:26 | 32.91860 | -87.66421 | 28826 ft | 318 kts | 231° |
| 2026-04-16 03:27 | 32.90457 | -87.68462 | 29310 ft | 317 kts | 232° |
| 2026-04-16 03:27 | 32.89082 | -87.70459 | 29835 ft | 315 kts | 231° |
| 2026-04-16 03:27 | 32.87685 | -87.72488 | 30093 ft | 320 kts | 232° |
| 2026-04-16 03:28 | 32.84779 | -87.76707 | 30108 ft | 339 kts | 231° |
| 2026-04-16 03:28 | 32.81723 | -87.81133 | 30109 ft | 356 kts | 231° |
| 2026-04-16 03:29 | 32.78549 | -87.85728 | 30105 ft | 360 kts | 232° |
| 2026-04-16 03:29 | 32.75320 | -87.90397 | 30110 ft | 373 kts | 231° |
| 2026-04-16 03:30 | 32.71967 | -87.95238 | 30112 ft | 385 kts | 232° |
| 2026-04-16 03:30 | 32.68526 | -88.00199 | 30112 ft | 395 kts | 231° |
| 2026-04-16 03:31 | 32.64986 | -88.05297 | 30109 ft | 405 kts | 231° |
| 2026-04-16 03:31 | 32.61392 | -88.10465 | 30109 ft | 414 kts | 231° |
| 2026-04-16 03:32 | 32.57690 | -88.15781 | 30113 ft | 422 kts | 231° |
| 2026-04-16 03:34 | 32.42652 | -88.37296 | 30108 ft | 417 kts | 231° |
| 2026-04-16 03:34 | 32.38972 | -88.42541 | 30115 ft | 413 kts | 231° |
| 2026-04-16 03:35 | 32.36005 | -88.48269 | 30113 ft | 409 kts | 248° |
| 2026-04-16 03:35 | 32.34390 | -88.54661 | 30117 ft | 406 kts | 252° |
| 2026-04-16 03:36 | 32.32785 | -88.60994 | 30117 ft | 404 kts | 252° |
| 2026-04-16 03:36 | 32.31162 | -88.67311 | 30126 ft | 402 kts | 251° |
| 2026-04-16 03:37 | 32.29531 | -88.73637 | 30120 ft | 401 kts | 252° |
| 2026-04-16 03:37 | 32.27907 | -88.79920 | 30118 ft | 400 kts | 252° |
| 2026-04-16 03:38 | 32.26293 | -88.86150 | 30117 ft | 399 kts | 251° |
| 2026-04-16 03:38 | 32.24672 | -88.92397 | 30115 ft | 398 kts | 252° |
| 2026-04-16 03:39 | 32.23047 | -88.98640 | 30116 ft | 398 kts | 251° |
| 2026-04-16 03:39 | 32.21429 | -89.04845 | 30116 ft | 397 kts | 251° |
| 2026-04-16 03:40 | 32.19809 | -89.11044 | 30126 ft | 396 kts | 251° |
| 2026-04-16 03:40 | 32.18186 | -89.17237 | 30124 ft | 396 kts | 252° |
| 2026-04-16 03:41 | 32.16555 | -89.23450 | 30116 ft | 395 kts | 251° |
| 2026-04-16 03:41 | 32.14933 | -89.29617 | 30124 ft | 395 kts | 252° |
| 2026-04-16 03:42 | 32.13305 | -89.35792 | 30118 ft | 394 kts | 251° |
| 2026-04-16 03:42 | 32.11683 | -89.41928 | 30108 ft | 394 kts | 251° |
| 2026-04-16 03:43 | 32.10050 | -89.48096 | 30115 ft | 393 kts | 251° |
| 2026-04-16 03:43 | 32.08427 | -89.54210 | 30110 ft | 393 kts | 251° |
| 2026-04-16 03:44 | 32.06791 | -89.60361 | 30104 ft | 392 kts | 251° |
| 2026-04-16 03:44 | 32.05159 | -89.66482 | 30103 ft | 392 kts | 251° |
| 2026-04-16 03:45 | 32.03534 | -89.72563 | 30113 ft | 392 kts | 251° |
| 2026-04-16 03:45 | 32.01888 | -89.78711 | 30100 ft | 393 kts | 251° |
| 2026-04-16 03:46 | 32.00254 | -89.84804 | 30107 ft | 393 kts | 251° |
| 2026-04-16 03:46 | 31.98607 | -89.90928 | 30103 ft | 393 kts | 251° |
| 2026-04-16 03:47 | 31.96964 | -89.97025 | 30096 ft | 393 kts | 251° |
| 2026-04-16 03:47 | 31.95309 | -90.03159 | 30100 ft | 393 kts | 250° |
| 2026-04-16 03:48 | 31.93653 | -90.09274 | 30090 ft | 393 kts | 251° |
| 2026-04-16 03:48 | 31.91999 | -90.15376 | 30086 ft | 392 kts | 250° |
| 2026-04-16 03:49 | 31.90344 | -90.21462 | 30088 ft | 392 kts | 251° |
| 2026-04-16 03:49 | 31.88689 | -90.27541 | 30091 ft | 392 kts | 250° |
| 2026-04-16 03:50 | 31.87032 | -90.33614 | 30097 ft | 392 kts | 250° |
| 2026-04-16 03:50 | 31.85367 | -90.39704 | 30094 ft | 392 kts | 250° |
| 2026-04-16 03:51 | 31.83694 | -90.45808 | 30087 ft | 392 kts | 251° |
| 2026-04-16 03:51 | 31.82023 | -90.51893 | 30092 ft | 392 kts | 250° |
| 2026-04-16 03:52 | 31.80345 | -90.57990 | 30085 ft | 392 kts | 250° |
| 2026-04-16 03:52 | 31.78673 | -90.64053 | 30094 ft | 392 kts | 250° |
| 2026-04-16 03:53 | 31.76985 | -90.70162 | 30093 ft | 392 kts | 250° |
| 2026-04-16 03:53 | 31.75303 | -90.76235 | 30089 ft | 393 kts | 250° |
| 2026-04-16 03:54 | 31.73612 | -90.82330 | 30088 ft | 393 kts | 250° |
| 2026-04-16 03:54 | 31.71917 | -90.88419 | 30084 ft | 394 kts | 250° |
| 2026-04-16 03:55 | 31.70220 | -90.94511 | 30081 ft | 394 kts | 250° |
| 2026-04-16 03:55 | 31.68520 | -91.00603 | 30080 ft | 394 kts | 250° |
| 2026-04-16 03:56 | 31.66811 | -91.06710 | 30086 ft | 393 kts | 250° |
| 2026-04-16 03:56 | 31.65104 | -91.12797 | 30082 ft | 393 kts | 250° |
| 2026-04-16 03:57 | 31.63405 | -91.18842 | 30087 ft | 393 kts | 250° |
| 2026-04-16 03:57 | 31.61690 | -91.24931 | 30085 ft | 393 kts | 250° |
| 2026-04-16 03:58 | 31.59976 | -91.31008 | 30086 ft | 392 kts | 250° |
| 2026-04-16 03:58 | 31.58269 | -91.37049 | 30082 ft | 392 kts | 250° |
| 2026-04-16 03:59 | 31.56557 | -91.43092 | 30083 ft | 392 kts | 250° |
| 2026-04-16 03:59 | 31.54833 | -91.49165 | 30074 ft | 392 kts | 250° |
| 2026-04-16 04:00 | 31.53115 | -91.55205 | 30070 ft | 392 kts | 250° |
| 2026-04-16 04:00 | 31.51394 | -91.61243 | 30073 ft | 391 kts | 250° |
| 2026-04-16 04:01 | 31.49673 | -91.67271 | 30073 ft | 391 kts | 250° |
| 2026-04-16 04:01 | 31.47944 | -91.73312 | 30076 ft | 391 kts | 250° |
| 2026-04-16 04:02 | 31.46223 | -91.79316 | 30067 ft | 391 kts | 250° |
| 2026-04-16 04:02 | 31.44492 | -91.85339 | 30073 ft | 391 kts | 250° |
| 2026-04-16 04:03 | 31.42754 | -91.91378 | 30071 ft | 391 kts | 250° |
| 2026-04-16 04:03 | 31.41019 | -91.97392 | 30061 ft | 391 kts | 250° |
| 2026-04-16 04:04 | 31.39279 | -92.03413 | 30063 ft | 391 kts | 250° |
| 2026-04-16 04:04 | 31.37538 | -92.09423 | 30061 ft | 390 kts | 250° |
| 2026-04-16 04:05 | 31.35800 | -92.15414 | 30072 ft | 390 kts | 250° |
| 2026-04-16 04:05 | 31.34058 | -92.21406 | 30076 ft | 389 kts | 250° |
| 2026-04-16 04:06 | 31.32316 | -92.27387 | 30066 ft | 389 kts | 250° |
| 2026-04-16 04:06 | 31.30575 | -92.33351 | 30069 ft | 388 kts | 250° |
| 2026-04-16 04:07 | 31.28835 | -92.39299 | 30071 ft | 388 kts | 250° |
| 2026-04-16 04:07 | 31.26221 | -92.48217 | 30073 ft | 387 kts | 250° |
| 2026-04-16 04:08 | 31.24279 | -92.54054 | 30063 ft | 387 kts | 247° |
| 2026-04-16 04:08 | 31.22247 | -92.59864 | 30061 ft | 386 kts | 247° |
| 2026-04-16 04:09 | 31.20211 | -92.65665 | 30064 ft | 386 kts | 247° |
| 2026-04-16 04:09 | 31.18176 | -92.71454 | 30072 ft | 386 kts | 246° |
| 2026-04-16 04:10 | 31.16140 | -92.77234 | 30071 ft | 386 kts | 247° |
| 2026-04-16 04:10 | 31.14102 | -92.83013 | 30077 ft | 386 kts | 247° |
| 2026-04-16 04:11 | 31.12062 | -92.88786 | 30067 ft | 386 kts | 247° |
| 2026-04-16 04:11 | 31.10022 | -92.94549 | 30074 ft | 386 kts | 247° |
| 2026-04-16 04:12 | 31.07975 | -93.00324 | 30067 ft | 386 kts | 247° |
| 2026-04-16 04:12 | 31.05926 | -93.06091 | 30073 ft | 386 kts | 247° |
| 2026-04-16 04:13 | 31.03866 | -93.11877 | 30071 ft | 385 kts | 247° |
| 2026-04-16 04:13 | 31.01827 | -93.17602 | 30069 ft | 385 kts | 247° |
| 2026-04-16 04:14 | 30.99767 | -93.23372 | 30071 ft | 385 kts | 247° |
| 2026-04-16 04:14 | 30.97727 | -93.29077 | 30073 ft | 384 kts | 247° |
| 2026-04-16 04:15 | 30.95673 | -93.34812 | 30070 ft | 384 kts | 247° |
| 2026-04-16 04:15 | 30.93612 | -93.40556 | 30064 ft | 384 kts | 247° |
| 2026-04-16 04:16 | 30.91555 | -93.46281 | 30066 ft | 384 kts | 247° |
| 2026-04-16 04:16 | 30.89496 | -93.52002 | 30061 ft | 383 kts | 247° |
| 2026-04-16 04:17 | 30.87438 | -93.57708 | 30066 ft | 384 kts | 247° |
| 2026-04-16 04:17 | 30.85370 | -93.63435 | 30053 ft | 384 kts | 247° |
| 2026-04-16 04:18 | 30.83314 | -93.69120 | 30064 ft | 384 kts | 246° |
| 2026-04-16 04:18 | 30.81233 | -93.74863 | 30067 ft | 385 kts | 247° |
| 2026-04-16 04:19 | 30.79154 | -93.80592 | 30065 ft | 385 kts | 246° |
| 2026-04-16 04:19 | 30.77080 | -93.86301 | 30064 ft | 386 kts | 247° |
| 2026-04-16 04:20 | 30.74992 | -93.92042 | 30063 ft | 386 kts | 247° |
| 2026-04-16 04:20 | 30.72909 | -93.97759 | 30058 ft | 386 kts | 247° |
| 2026-04-16 04:21 | 30.71856 | -94.00648 | 29916 ft | 390 kts | 246° |
| 2026-04-16 04:21 | 30.70793 | -94.03558 | 29420 ft | 400 kts | 246° |
| 2026-04-16 04:21 | 30.69708 | -94.06529 | 28909 ft | 401 kts | 246° |
| 2026-04-16 04:21 | 30.68628 | -94.09482 | 28412 ft | 398 kts | 246° |
| 2026-04-16 04:22 | 30.67537 | -94.12465 | 27541 ft | 403 kts | 246° |
| 2026-04-16 04:22 | 30.66442 | -94.15454 | 26630 ft | 407 kts | 246° |
| 2026-04-16 04:22 | 30.65342 | -94.18456 | 26013 ft | 404 kts | 246° |
| 2026-04-16 04:22 | 30.64244 | -94.21452 | 25314 ft | 404 kts | 245° |
| 2026-04-16 04:23 | 30.63154 | -94.24420 | 24411 ft | 408 kts | 245° |
| 2026-04-16 04:23 | 30.62042 | -94.27447 | 23753 ft | 406 kts | 245° |
| 2026-04-16 04:23 | 30.60942 | -94.30441 | 23233 ft | 400 kts | 245° |
| 2026-04-16 04:23 | 30.59866 | -94.33366 | 22603 ft | 398 kts | 245° |
| 2026-04-16 04:24 | 30.58785 | -94.36300 | 21952 ft | 397 kts | 245° |
| 2026-04-16 04:24 | 30.57702 | -94.39236 | 21335 ft | 395 kts | 245° |
| 2026-04-16 04:24 | 30.56625 | -94.42155 | 20732 ft | 393 kts | 245° |
| 2026-04-16 04:24 | 30.55556 | -94.45052 | 20182 ft | 389 kts | 245° |
| 2026-04-16 04:25 | 30.54513 | -94.47875 | 19659 ft | 386 kts | 245° |
| 2026-04-16 04:25 | 30.53333 | -94.50652 | 19349 ft | 374 kts | 236° |
| 2026-04-16 04:25 | 30.51805 | -94.52977 | 19351 ft | 358 kts | 232° |
| 2026-04-16 04:25 | 30.50290 | -94.55221 | 19333 ft | 345 kts | 232° |
| 2026-04-16 04:26 | 30.48821 | -94.57385 | 19093 ft | 341 kts | 232° |
| 2026-04-16 04:26 | 30.47366 | -94.59519 | 18715 ft | 340 kts | 232° |
| 2026-04-16 04:26 | 30.45908 | -94.61657 | 18362 ft | 338 kts | 232° |
| 2026-04-16 04:26 | 30.44444 | -94.63802 | 17906 ft | 336 kts | 232° |
| 2026-04-16 04:27 | 30.43004 | -94.65910 | 17455 ft | 335 kts | 232° |
| 2026-04-16 04:27 | 30.41572 | -94.68007 | 16997 ft | 335 kts | 231° |
| 2026-04-16 04:27 | 30.40118 | -94.70121 | 16504 ft | 335 kts | 230° |
| 2026-04-16 04:27 | 30.38581 | -94.72156 | 16065 ft | 332 kts | 229° |
| 2026-04-16 04:28 | 30.37079 | -94.74143 | 15493 ft | 328 kts | 229° |
| 2026-04-16 04:28 | 30.35595 | -94.76105 | 14731 ft | 328 kts | 229° |
| 2026-04-16 04:28 | 30.34088 | -94.78097 | 14008 ft | 328 kts | 230° |
| 2026-04-16 04:28 | 30.32609 | -94.80051 | 13367 ft | 324 kts | 230° |
| 2026-04-16 04:29 | 30.31143 | -94.81988 | 12708 ft | 322 kts | 229° |
| 2026-04-16 04:29 | 30.29669 | -94.83933 | 12066 ft | 320 kts | 229° |
| 2026-04-16 04:29 | 30.28213 | -94.85880 | 11393 ft | 319 kts | 230° |
| 2026-04-16 04:29 | 30.26806 | -94.87836 | 10790 ft | 316 kts | 230° |
| 2026-04-16 04:30 | 30.25456 | -94.89711 | 10727 ft | 295 kts | 230° |
| 2026-04-16 04:30 | 30.24181 | -94.91479 | 10700 ft | 276 kts | 230° |
| 2026-04-16 04:30 | 30.22984 | -94.93138 | 10469 ft | 268 kts | 230° |
| 2026-04-16 04:30 | 30.21786 | -94.94797 | 10033 ft | 268 kts | 230° |
| 2026-04-16 04:31 | 30.20595 | -94.96446 | 9630 ft | 267 kts | 229° |
| 2026-04-16 04:31 | 30.19408 | -94.98088 | 9227 ft | 266 kts | 229° |
| 2026-04-16 04:31 | 30.18234 | -94.99712 | 8831 ft | 265 kts | 229° |
| 2026-04-16 04:31 | 30.17055 | -95.01342 | 8483 ft | 262 kts | 229° |
| 2026-04-16 04:32 | 30.15899 | -95.02940 | 8097 ft | 261 kts | 229° |
| 2026-04-16 04:32 | 30.14754 | -95.04522 | 7980 ft | 248 kts | 229° |
| 2026-04-16 04:32 | 30.13684 | -95.05999 | 7966 ft | 236 kts | 229° |
| 2026-04-16 04:32 | 30.12700 | -95.07587 | 7985 ft | 247 kts | 246° |
| 2026-04-16 04:33 | 30.12318 | -95.09531 | 7996 ft | 254 kts | 258° |
| 2026-04-16 04:33 | 30.12004 | -95.11565 | 7988 ft | 255 kts | 257° |
| 2026-04-16 04:33 | 30.11688 | -95.13575 | 7891 ft | 253 kts | 257° |
| 2026-04-16 04:33 | 30.11373 | -95.15569 | 7728 ft | 253 kts | 257° |
| 2026-04-16 04:34 | 30.11060 | -95.17549 | 7506 ft | 253 kts | 257° |
| 2026-04-16 04:34 | 30.10746 | -95.19532 | 7314 ft | 251 kts | 257° |
| 2026-04-16 04:34 | 30.10430 | -95.21523 | 7106 ft | 251 kts | 257° |
| 2026-04-16 04:34 | 30.10117 | -95.23500 | 6974 ft | 249 kts | 257° |
| 2026-04-16 04:35 | 30.09806 | -95.25453 | 6985 ft | 249 kts | 257° |
| 2026-04-16 04:35 | 30.09493 | -95.27420 | 6976 ft | 250 kts | 257° |
| 2026-04-16 04:35 | 30.09234 | -95.29403 | 6975 ft | 251 kts | 265° |
| 2026-04-16 04:35 | 30.09241 | -95.31407 | 6983 ft | 252 kts | 267° |
| 2026-04-16 04:36 | 30.09245 | -95.33417 | 6975 ft | 246 kts | 267° |
| 2026-04-16 04:36 | 30.09249 | -95.35368 | 6963 ft | 238 kts | 267° |
| 2026-04-16 04:36 | 30.09254 | -95.37241 | 6950 ft | 232 kts | 267° |
| 2026-04-16 04:36 | 30.09258 | -95.39087 | 6883 ft | 229 kts | 267° |
| 2026-04-16 04:37 | 30.09263 | -95.40921 | 6762 ft | 228 kts | 267° |
| 2026-04-16 04:37 | 30.09265 | -95.42756 | 6624 ft | 228 kts | 266° |
| 2026-04-16 04:37 | 30.09258 | -95.44565 | 6436 ft | 226 kts | 267° |
| 2026-04-16 04:37 | 30.09258 | -95.46390 | 6179 ft | 227 kts | 267° |
| 2026-04-16 04:38 | 30.09232 | -95.48212 | 5990 ft | 224 kts | 265° |
| 2026-04-16 04:38 | 30.09201 | -95.49967 | 5967 ft | 214 kts | 266° |
| 2026-04-16 04:38 | 30.09170 | -95.51701 | 5977 ft | 218 kts | 266° |
| 2026-04-16 04:38 | 30.09137 | -95.53442 | 5974 ft | 220 kts | 266° |
| 2026-04-16 04:39 | 30.09096 | -95.55212 | 5976 ft | 221 kts | 265° |
| 2026-04-16 04:39 | 30.09058 | -95.57004 | 5976 ft | 223 kts | 266° |
| 2026-04-16 04:39 | 30.09021 | -95.58786 | 5978 ft | 224 kts | 266° |
| 2026-04-16 04:39 | 30.08985 | -95.60592 | 5974 ft | 222 kts | 266° |
| 2026-04-16 04:40 | 30.08945 | -95.62356 | 5777 ft | 221 kts | 266° |
| 2026-04-16 04:40 | 30.08914 | -95.64146 | 5481 ft | 224 kts | 266° |
| 2026-04-16 04:40 | 30.08884 | -95.65930 | 5230 ft | 225 kts | 265° |
| 2026-04-16 04:40 | 30.08862 | -95.67737 | 5009 ft | 224 kts | 265° |
| 2026-04-16 04:41 | 30.08840 | -95.69533 | 4767 ft | 224 kts | 265° |
| 2026-04-16 04:41 | 30.08818 | -95.71323 | 4525 ft | 224 kts | 265° |
| 2026-04-16 04:41 | 30.08805 | -95.73123 | 4272 ft | 225 kts | 265° |
| 2026-04-16 04:41 | 30.08541 | -95.74857 | 4009 ft | 217 kts | 238° |
| 2026-04-16 04:42 | 30.07500 | -95.76023 | 3722 ft | 211 kts | 201° |
| 2026-04-16 04:42 | 30.06084 | -95.76169 | 3471 ft | 208 kts | 166° |
| 2026-04-16 04:42 | 30.04731 | -95.75658 | 3407 ft | 198 kts | 161° |
| 2026-04-16 04:42 | 30.03537 | -95.74920 | 3211 ft | 199 kts | 135° |
| 2026-04-16 04:43 | 30.02899 | -95.73491 | 3006 ft | 203 kts | 112° |
| 2026-04-16 04:43 | 30.02485 | -95.71960 | 2960 ft | 193 kts | 111° |
| 2026-04-16 04:43 | 30.02078 | -95.70464 | 2968 ft | 194 kts | 111° |
| 2026-04-16 04:43 | 30.01661 | -95.69008 | 2962 ft | 190 kts | 116° |
| 2026-04-16 04:44 | 30.01255 | -95.67581 | 2961 ft | 188 kts | 108° |
| 2026-04-16 04:44 | 30.01010 | -95.66096 | 2963 ft | 185 kts | 103° |
| 2026-04-16 04:44 | 30.00867 | -95.64645 | 2965 ft | 183 kts | 99° |
| 2026-04-16 04:44 | 30.00784 | -95.63184 | 2966 ft | 180 kts | 97° |
| 2026-04-16 04:45 | 30.00738 | -95.61726 | 2977 ft | 183 kts | 96° |
| 2026-04-16 04:45 | 30.00715 | -95.60251 | 2979 ft | 185 kts | 95° |
| 2026-04-16 04:45 | 30.00705 | -95.58764 | 3020 ft | 182 kts | 95° |
| 2026-04-16 04:45 | 30.00701 | -95.57301 | 2972 ft | 182 kts | 95° |
| 2026-04-16 04:46 | 30.00701 | -95.55862 | 2968 ft | 180 kts | 95° |
| 2026-04-16 04:46 | 30.00703 | -95.54431 | 2969 ft | 177 kts | 95° |
| 2026-04-16 04:46 | 30.00704 | -95.53011 | 2904 ft | 179 kts | 95° |
| 2026-04-16 04:46 | 30.00706 | -95.51547 | 2699 ft | 187 kts | 95° |
| 2026-04-16 04:47 | 30.00708 | -95.50038 | 2461 ft | 184 kts | 95° |
| 2026-04-16 04:47 | 30.00712 | -95.48612 | 2221 ft | 172 kts | 95° |
| 2026-04-16 04:47 | 30.00714 | -95.47281 | 2000 ft | 163 kts | 95° |
| 2026-04-16 04:47 | 30.00715 | -95.46022 | 1800 ft | 153 kts | 96° |
| 2026-04-16 04:48 | 30.00717 | -95.44831 | 1606 ft | 143 kts | 97° |
| 2026-04-16 04:48 | 30.00716 | -95.43710 | 1416 ft | 139 kts | 96° |
| 2026-04-16 04:48 | 30.00716 | -95.42603 | 1237 ft | 138 kts | 96° |
| 2026-04-16 04:48 | 30.00717 | -95.41504 | 1058 ft | 138 kts | 96° |
| 2026-04-16 04:49 | 30.00717 | -95.40403 | 881 ft | 137 kts | 95° |
| 2026-04-16 04:49 | 30.00716 | -95.39307 | 702 ft | 136 kts | 95° |
| 2026-04-16 04:49 | 30.00723 | -95.38206 | 521 ft | 137 kts | 94° |
| 2026-04-16 04:49 | 30.00725 | -95.37105 | 350 ft | 137 kts | 95° |
| 2026-04-16 04:50 | 30.00718 | -95.36012 | 165 ft | 137 kts | 93° |
| 2026-04-16 04:50 | 30.00720 | -95.34961 | 98 ft | 119 kts | 92° |
| 2026-04-16 04:50 | 30.00718 | -95.34162 | 98 ft | 78 kts | 90° |
| 2026-04-16 04:50 | 30.00718 | -95.33696 | 98 ft | 34 kts | 91° |
| 2026-04-16 04:51 | 30.00684 | -95.33518 | 98 ft | 22 kts | 120° |
| 2026-04-16 04:51 | 30.00630 | -95.33411 | 98 ft | 11 kts | 120° |
| 2026-04-16 04:51 | 30.00589 | -95.33331 | 98 ft | 11 kts | 120° |
| 2026-04-16 04:51 | 30.00551 | -95.33251 | 98 ft | 12 kts | 118° |
| 2026-04-16 04:52 | 30.00515 | -95.33174 | 98 ft | 9 kts | 117° |
| 2026-04-16 04:52 | 30.00480 | -95.33094 | 97 ft | 12 kts | 117° |
| 2026-04-16 04:52 | 30.00424 | -95.33000 | 96 ft | 15 kts | 130° |
| 2026-04-16 04:52 | 30.00347 | -95.32896 | 95 ft | 16 kts | 130° |
| 2026-04-16 04:53 | 30.00280 | -95.32804 | 95 ft | 14 kts | 130° |
| 2026-04-16 04:53 | 30.00218 | -95.32719 | 95 ft | 12 kts | 129° |
| 2026-04-16 04:53 | 30.00160 | -95.32639 | 95 ft | 13 kts | 130° |
| 2026-04-16 04:53 | 30.00102 | -95.32564 | 95 ft | 12 kts | 142° |
| 2026-04-16 04:54 | 30.00011 | -95.32541 | 95 ft | 13 kts | 180° |
| 2026-04-16 04:54 | 29.99906 | -95.32541 | 95 ft | 16 kts | 180° |
| 2026-04-16 04:54 | 29.99787 | -95.32541 | 95 ft | 17 kts | 180° |
| 2026-04-16 04:54 | 29.99676 | -95.32541 | 95 ft | 8 kts | 180° |
| 2026-04-16 04:55 | 29.99627 | -95.32541 | 95 ft | 8 kts | 180° |
| 2026-04-16 04:55 | 29.99562 | -95.32542 | 95 ft | 10 kts | 181° |
| 2026-04-16 04:55 | 29.99482 | -95.32542 | 95 ft | 11 kts | 180° |
| 2026-04-16 04:55 | 29.99403 | -95.32541 | 95 ft | 12 kts | 180° |
| 2026-04-16 04:56 | 29.99310 | -95.32541 | 95 ft | 14 kts | 180° |
| 2026-04-16 04:56 | 29.99229 | -95.32541 | 95 ft | 9 kts | 180° |
| 2026-04-16 04:56 | 29.99182 | -95.32567 | 95 ft | 8 kts | 258° |
| 2026-04-16 04:56 | 29.99181 | -95.32649 | 95 ft | 11 kts | 270° |
| 2026-04-16 04:57 | 29.99180 | -95.32752 | 95 ft | 14 kts | 269° |
| 2026-04-16 04:57 | 29.99180 | -95.32865 | 95 ft | 13 kts | 270° |
| 2026-04-16 04:57 | 29.99180 | -95.32947 | 95 ft | 8 kts | 270° |
| 2026-04-16 04:57 | 29.99174 | -95.33010 | 95 ft | 8 kts | 238° |
| 2026-04-16 04:58 | 29.99110 | -95.33028 | 95 ft | 11 kts | 181° |
| 2026-04-16 04:58 | 29.99023 | -95.33028 | 95 ft | 13 kts | 179° |
| 2026-04-16 04:58 | 29.98920 | -95.33026 | 95 ft | 15 kts | 179° |
| 2026-04-16 04:58 | 29.98802 | -95.33026 | 95 ft | 18 kts | 180° |
| 2026-04-16 04:59 | 29.98669 | -95.33026 | 94 ft | 20 kts | 180° |
| 2026-04-16 04:59 | 29.98539 | -95.33026 | 95 ft | 16 kts | 180° |
| 2026-04-16 04:59 | 29.98424 | -95.33026 | 94 ft | 15 kts | 180° |
| 2026-04-16 04:59 | 29.98344 | -95.33026 | 94 ft | 8 kts | 180° |
| 2026-04-16 05:00 | 29.98304 | -95.33075 | 94 ft | 10 kts | 264° |
| 2026-04-16 05:00 | 29.98303 | -95.33171 | 95 ft | 13 kts | 270° |
| 2026-04-16 05:00 | 29.98302 | -95.33288 | 94 ft | 16 kts | 269° |
| 2026-04-16 05:00 | 29.98301 | -95.33425 | 96 ft | 17 kts | 270° |
| 2026-04-16 05:01 | 29.98305 | -95.33572 | 97 ft | 19 kts | 276° |
| 2026-04-16 05:01 | 29.98317 | -95.33740 | 97 ft | 22 kts | 273° |
| 2026-04-16 05:01 | 29.98317 | -95.33901 | 98 ft | 14 kts | 269° |
| 2026-04-16 05:01 | 29.98324 | -95.33995 | 98 ft | 11 kts | 285° |
| 2026-04-16 05:02 | 29.98369 | -95.34082 | 98 ft | 13 kts | 294° |
| 2026-04-16 05:02 | 29.98377 | -95.34188 | 98 ft | 12 kts | 270° |
| 2026-04-16 05:02 | 29.98377 | -95.34289 | 98 ft | 9 kts | 270° |
| 2026-04-16 05:02 | 29.98382 | -95.34335 | 98 ft | 4 kts | 317° |
| 2026-04-16 05:03 | 29.98418 | -95.34342 | 98 ft | 3 kts | 359° |
| 2026-04-16 05:03 | 29.98454 | -95.34342 | 98 ft | 6 kts | 0° |
| 2026-04-16 05:03 | 29.98490 | -95.34343 | 98 ft | 3 kts | 347° |
| 2026-04-16 05:04 | 29.98511 | -95.34375 | 98 ft | 1 kts | 290° |
| 2026-04-16 05:04 | 29.98513 | -95.34383 | 98 ft | 2 kts | 287° |
| 2026-04-16 05:04 | 29.98514 | -95.34388 | 98 ft | 0 kts | 287° |